Portada
METAR-TAF:

METAR-TAF

Aeroports :

Tangier, Virgínia, Estats Units d'Amèrica

latitud: 37-49-31N, longitud: 075-59-52W, altitud: 2 m

Observació

L'informe es va fer fa 39 minuts, a les 22:18 UTC
Vent 13 kt del Sud-Est amb ràfegues de 17 kt
Temperatura 23°C
Humitat 73%
Pressió 1020 hPa
Visibilitat: 16.1 km
Cel clar

METAR: KTGI 252218Z AUTO 14013G17KT 10SM CLR 23/18 A3011 RMK AO1

Hora: 18:57 (22:57 UTC)


TAF: manca

Observacions i pronòstics meteorològics de més de 4000 aeroports (METAR i TAF).

Les estacions disponibles són els punts grocs i vermells al mapa.

Posi el ratolí al punt desitjat per veure el nom de l'estació.

Feu clic per veure les observacions i els pronòstics meteorològics.

Per canviar el mapa: feu clic els botons verds amb una creu de color negre per apropar; al botó verd amb un guió per allunyar la imatge; o en les fletxes verdes per a mapes adjacents.


METAR-TAF: